Flight Track Log - Related Links

Times and Time Zones

All times are in EDT time to prevent confusion due to time zone crossing. See the THY1614 flight status page for this flight to view local times or setup timezone preferences in your user account.

Time Position Orientation Groundspeed Altitude Reporting Facility
EDT Latitude Longitude Course Direction KTS MPH feet Rate Location/Type
Wed 04:59:00 PM 49.0596 11.7039 114° Southeast  Level Estimated
Wed 05:00:00 PM 49.0033 11.8758 116° Southeast  Level Estimated
Wed 05:01:00 PM 48.9469 12.0473 117° Southeast  Level Estimated
Wed 05:02:00 PM 48.8902 12.2185 117° Southeast  Level Estimated
Wed 05:03:00 PM 48.8332 12.3892 117° Southeast  Level Estimated
Wed 05:04:00 PM 48.7760 12.5596 117° Southeast  Level Estimated
Wed 05:05:00 PM 48.7185 12.7296 117° Southeast  Level Estimated
Wed 05:06:00 PM 48.6608 12.8992 117° Southeast  Level Estimated
Wed 05:07:00 PM 48.6028 13.0684 117° Southeast  Level Estimated
Wed 05:08:00 PM 48.5446 13.2372 117° Southeast  Level Estimated
Wed 05:09:00 PM 48.4862 13.4056 118° Southeast  Level Estimated
Wed 05:10:00 PM 48.4275 13.5737 118° Southeast  Level Estimated
Wed 05:11:00 PM 48.3685 13.7413 118° Southeast  Level Estimated
Wed 05:12:00 PM 48.3093 13.9086 118° Southeast  Level Estimated
Wed 05:13:00 PM 48.2499 14.0754 118° Southeast  Level Estimated
Wed 05:14:00 PM 48.1902 14.2419 118° Southeast  Level Estimated
Wed 05:15:00 PM 48.1303 14.4080 118° Southeast  Level Estimated
Wed 05:16:00 PM 48.0702 14.5737 118° Southeast  Level Estimated
Wed 05:17:00 PM 48.0098 14.7390 119° Southeast  Level Estimated
Wed 05:18:00 PM 47.9491 14.9039 119° Southeast  Level Estimated
Wed 05:19:00 PM 47.8883 15.0685 119° Southeast  Level Estimated
Wed 05:20:00 PM 47.8272 15.2326 119° Southeast  Level Estimated
Wed 05:21:00 PM 47.7659 15.3964 119° Southeast  Level Estimated
Wed 05:22:00 PM 47.7043 15.5598 119° Southeast  Level Estimated
Wed 05:23:00 PM 47.6425 15.7228 119° Southeast  Level Estimated
Wed 05:24:00 PM 47.5805 15.8854 119° Southeast  Level Estimated
Wed 05:25:00 PM 47.5182 16.0476 120° Southeast  Level Estimated
Wed 05:26:00 PM 47.4557 16.2095 120° Southeast  Level Estimated
Wed 05:27:00 PM 47.3930 16.3709 120° Southeast  Level Estimated
Wed 05:28:00 PM 47.3301 16.5320 120° Southeast  Level Estimated
Wed 05:29:00 PM 47.2669 16.6927 120° Southeast  Level Estimated
Wed 05:30:00 PM 47.2035 16.8530 120° Southeast  Level Estimated
Wed 05:31:00 PM 47.1399 17.0129 120° Southeast  Level Estimated
Wed 05:32:00 PM 47.0761 17.1724 120° Southeast  Level Estimated
Wed 05:33:00 PM 47.0121 17.3316 121° Southeast  Level Estimated
Wed 05:34:00 PM 46.9478 17.4904 121° Southeast  Level Estimated
Wed 05:35:00 PM 46.8833 17.6488 121° Southeast  Level Estimated
Wed 05:36:00 PM 46.8186 17.8068 121° Southeast  Level Estimated
Wed 05:37:00 PM 46.7537 17.9644 121° Southeast  Level Estimated
Wed 05:38:00 PM 46.6885 18.1216 121° Southeast  Level Estimated
Wed 05:39:00 PM 46.6232 18.2785 121° Southeast  Level Estimated
Wed 05:40:00 PM 46.5576 18.4350 121° Southeast  Level Estimated
Wed 05:41:00 PM 46.4918 18.5911 121° Southeast  Level Estimated
Wed 05:42:00 PM 46.4258 18.7468 122° Southeast  Level Estimated
Wed 05:43:00 PM 46.3596 18.9022 122° Southeast  Level Estimated
Wed 05:44:00 PM 46.2932 19.0572 122° Southeast  Level Estimated
Wed 05:45:00 PM 46.2266 19.2118 122° Southeast  Level Estimated
Wed 05:46:00 PM 46.1597 19.3660 122° Southeast  Level Estimated
Wed 05:47:00 PM 46.0927 19.5199 122° Southeast  Level Estimated
Wed 05:48:00 PM 46.0255 19.6733 122° Southeast  Level Estimated
Wed 05:49:00 PM 45.9580 19.8265 122° Southeast  Level Estimated
Wed 05:50:00 PM 45.8904 19.9792 122° Southeast  Level Estimated
Wed 05:51:00 PM 45.8225 20.1315 123° Southeast  Level Estimated
Wed 05:52:00 PM 45.7544 20.2835 123° Southeast  Level Estimated
Wed 05:53:00 PM 45.6862 20.4352 123° Southeast  Level Estimated
Wed 05:54:00 PM 45.6177 20.5864 123° Southeast  Level Estimated
Wed 05:55:00 PM 45.5491 20.7373 123° Southeast  Level Estimated
Wed 05:56:00 PM 45.4802 20.8878 123° Southeast  Level Estimated
Wed 05:57:00 PM 45.4112 21.0379 123° Southeast  Level Estimated
Wed 05:58:00 PM 45.3419 21.1877 123° Southeast  Level Estimated
Wed 05:59:00 PM 45.2724 21.3371 123° Southeast  Level Estimated
Wed 06:00:00 PM 45.2028 21.4862 124° Southeast  Level Estimated
Wed 06:01:00 PM 45.1330 21.6348 124° Southeast  Level Estimated
Wed 06:02:00 PM 45.0630 21.7831 124° Southeast  Level Estimated
Wed 06:03:00 PM 44.9927 21.9311 124° Southeast  Level Estimated
Wed 06:04:00 PM 44.9223 22.0787 124° Southeast  Level Estimated
Wed 06:05:00 PM 44.8517 22.2259 124° Southeast  Level Estimated
Wed 06:06:00 PM 44.7809 22.3728 124° Southeast  Level Estimated
Wed 06:07:00 PM 44.7100 22.5193 124° Southeast  Level Estimated
Wed 06:08:00 PM 44.6388 22.6654 124° Southeast  Level Estimated
Wed 06:09:00 PM 44.5675 22.8112 124° Southeast  Level Estimated
Wed 06:10:00 PM 44.4959 22.9567 125° Southeast  Level Estimated
Wed 06:11:00 PM 44.4242 23.1017 125° Southeast  Level Estimated
Wed 06:12:00 PM 44.3523 23.2465 125° Southeast  Level Estimated
Wed 06:13:00 PM 44.2802 23.3908 125° Southeast  Level Estimated
Wed 06:14:00 PM 44.2080 23.5348 125° Southeast  Level Estimated
Wed 06:15:00 PM 44.1355 23.6785 125° Southeast  Level Estimated
Wed 06:16:00 PM 44.0629 23.8218 125° Southeast  Level Estimated
Wed 06:17:00 PM 43.9901 23.9647 125° Southeast  Level Estimated
Wed 06:18:00 PM 43.9171 24.1073 125° Southeast  Level Estimated
Wed 06:19:00 PM 43.8440 24.2496 125° Southeast  Level Estimated
Wed 06:20:00 PM 43.7706 24.3915 126° Southeast  Level Estimated
Wed 06:21:00 PM 43.6971 24.5330 126° Southeast  Level Estimated
Wed 06:22:00 PM 43.6234 24.6742 126° Southeast  Level Estimated
Wed 06:23:00 PM 43.5496 24.8151 126° Southeast  Level Estimated
Wed 06:24:00 PM 43.4756 24.9556 126° Southeast  Level Estimated
Wed 06:25:00 PM 43.4014 25.0958 126° Southeast  Level Estimated
Wed 06:26:00 PM 43.3270 25.2356 126° Southeast  Level Estimated
Wed 06:27:00 PM 43.2524 25.3751 126° Southeast  Level Estimated
Wed 06:28:00 PM 43.1777 25.5142 126° Southeast  Level Estimated
Wed 06:29:00 PM 43.1029 25.6530 126° Southeast  Level Estimated
Wed 06:30:00 PM 43.0278 25.7915 127° Southeast  Level Estimated
Wed 06:31:00 PM 42.9526 25.9296 127° Southeast  Level Estimated
Wed 06:32:00 PM 42.8772 26.0674 127° Southeast  Level Estimated
Wed 06:33:00 PM 42.8017 26.2049 127° Southeast  Level Estimated
Wed 06:34:00 PM 42.7260 26.3420 127° Southeast  Level Estimated
Wed 06:35:00 PM 42.6501 26.4788 127° Southeast  Level Estimated
Wed 06:36:00 PM 42.5741 26.6152 127° Southeast  Level Estimated
Wed 06:37:00 PM 42.4979 26.7513 127° Southeast  Level Estimated
Wed 06:38:00 PM 42.4216 26.8871 127° Southeast  Level Estimated
Wed 06:39:00 PM 42.3450 27.0226 127° Southeast  Level Estimated
Wed 06:40:00 PM 42.2684 27.1577 127° Southeast  Level Estimated
Wed 06:41:00 PM 42.1915 27.2925 128° Southeast  Level Estimated
Wed 06:42:00 PM 42.1146 27.4270 128° Southeast  Level Estimated
Wed 06:43:00 PM 42.0374 27.5611 128° Southeast  Level Estimated
Wed 06:44:00 PM 41.9601 27.6949 128° Southeast  Level Estimated
Wed 06:45:00 PM 41.8827 27.8284 128° Southeast  Level Estimated
Wed 06:46:00 PM 41.8050 27.9616 128° Southeast  Level Estimated
Wed 06:47:00 PM 41.7273 28.0944 128° Southeast  Level Estimated
Wed 06:48:00 PM 41.6494 28.2269 128° Southeast  Level Estimated
Wed 06:49:00 PM 41.5713 28.3591 128° Southeast  Level Estimated
Wed 06:50:00 PM 41.4931 28.4910 128° Southeast  Level Estimated
Wed 06:51:00 PM 41.4147 28.6226 128° Southeast  Level Estimated
Wed 06:52:00 PM 41.3362 28.7538 129° Southeast  Level Estimated
Wed 06:53:00 PM 41.2575 28.8847 129° Southeast  Level Estimated
Wed 06:54:00 PM 41.1787 29.0154 129° Southeast  Level Estimated
Wed 06:55:00 PM 41.0998 29.1457 129° Southeast  Level Estimated
Wed 06:56:00 PM 41.0206 29.2756 129° Southeast  Level Estimated
Wed 06:57:00 PM 40.9414 29.4053 129° Southeast  Level Estimated
Wed 06:58:00 PM 40.8620 29.5347 129° Southeast  Level Estimated
Wed 06:59:00 PM 40.7825 29.6637 129° Southeast  Level Estimated
Wed 07:00:00 PM 40.7028 29.7925 129° Southeast  Level Estimated
Wed 07:01:00 PM 40.6229 29.9209 129° Southeast  Level Estimated
Wed 07:02:00 PM 40.5430 30.0490 129° Southeast  Level Estimated
Wed 07:03:00 PM 40.4629 30.1769 129° Southeast  Level Estimated
Wed 07:04:00 PM 40.3826 30.3044 130° Southeast  Level Estimated
Wed 07:05:00 PM 40.3022 30.4316 130° Southeast  Level Estimated
Wed 07:06:00 PM 40.2217 30.5585 130° Southeast  Level Estimated
Wed 07:07:00 PM 40.1410 30.6851 130° Southeast  Level Estimated
Wed 07:08:00 PM 40.0602 30.8114 130° Southeast  Level Estimated
Wed 07:09:00 PM 39.9793 30.9374 130° Southeast  Level Estimated
Wed 07:10:00 PM 39.8982 31.0632 130° Southeast  Level Estimated
Wed 07:11:00 PM 39.8170 31.1886 130° Southeast  Level Estimated
Wed 07:12:00 PM 39.7356 31.3137 130° Southeast  Level Estimated
Wed 07:13:00 PM 39.6541 31.4385 130° Southeast  Level Estimated
Wed 07:14:00 PM 39.5725 31.5630 130° Southeast  Level Estimated
Wed 07:15:00 PM 39.4908 31.6873 130° Southeast  Level Estimated
Wed 07:16:00 PM 39.4089 31.8112 131° Southeast  Level Estimated
Wed 07:17:00 PM 39.3269 31.9349 131° Southeast  Level Estimated
Wed 07:18:00 PM 39.2447 32.0582 131° Southeast  Level Estimated
Wed 07:19:00 PM 39.1625 32.1813 131° Southeast  Level Estimated
Wed 07:20:00 PM 39.0801 32.3041 131° Southeast  Level Estimated
Wed 07:21:00 PM 38.9975 32.4266 131° Southeast  Level Estimated
Wed 07:22:00 PM 38.9149 32.5488 131° Southeast  Level Estimated
Wed 07:23:00 PM 38.8321 32.6707 131° Southeast  Level Estimated
Wed 07:24:00 PM 38.7492 32.7924 131° Southeast  Level Estimated
Wed 07:25:00 PM 38.6661 32.9137 131° Southeast  Level Estimated
Wed 07:26:00 PM 38.5830 33.0348 131° Southeast  Level Estimated
Wed 07:27:00 PM 38.4997 33.1556 131° Southeast  Level Estimated
Wed 07:28:00 PM 38.4163 33.2761 131° Southeast  Level Estimated
Wed 07:29:00 PM 38.3327 33.3964 132° Southeast  Level Estimated
Wed 07:30:00 PM 38.2491 33.5164 132° Southeast  Level Estimated
Wed 07:31:00 PM 38.1653 33.6361 132° Southeast  Level Estimated
Wed 07:32:00 PM 38.0814 33.7555 132° Southeast  Level Estimated
Wed 07:33:00 PM 37.9974 33.8746 132° Southeast  Level Estimated
Wed 07:34:00 PM 37.9132 33.9935 132° Southeast  Level Estimated
Wed 07:35:00 PM 37.8290 34.1121 132° Southeast  Level Estimated
Wed 07:36:00 PM 37.7446 34.2304 132° Southeast  Level Estimated
Wed 07:37:00 PM 37.6601 34.3485 132° Southeast  Level Estimated
Wed 07:38:00 PM 37.5755 34.4663 132° Southeast  Level Estimated
Wed 07:39:00 PM 37.4908 34.5838 132° Southeast  Level Estimated
Wed 07:40:00 PM 37.4059 34.7010 132° Southeast  Level Estimated
Wed 07:41:00 PM 37.3210 34.8180 132° Southeast  Level Estimated
Wed 07:42:00 PM 37.2359 34.9348 132° Southeast  Level Estimated
Wed 07:43:00 PM 37.1507 35.0512 133° Southeast  Level Estimated
Wed 07:44:00 PM 37.0654 35.1674 133° Southeast  Level Estimated
Wed 07:45:00 PM 36.9822 35.2804 133° Southeast  Level Estimated
Wed 07:46:00 PM 36.9822 35.2804 202° Southwest  Level Estimated
Wed 07:47:00 PM 36.9822 35.2804 202° Southwest  Level Estimated
Wed 07:48:00 PM 36.9822 35.2804 202° Southwest  Level Estimated
Wed 07:49:00 PM 36.9822 35.2804 202° Southwest  Level Estimated
Wed 07:50:00 PM 36.9822 35.2804 202° Southwest  Level Estimated
Wed 07:51:00 PM 36.9822 35.2804 202° Southwest  Level Estimated
Wed 07:52:00 PM 36.9822 35.2804 202° Southwest  Level Estimated
Wed 07:53:00 PM 36.9822 35.2804 202° Southwest  Level Estimated
Wed 07:54:00 PM 36.9822 35.2804 202° Southwest  Level Estimated
Wed 07:55:00 PM 36.9822 35.2804 202° Southwest  Level Estimated
Wed 07:56:00 PM 36.9822 35.2804 202° Southwest  Level Estimated
Wed 07:57:00 PM 36.9822 35.2804 202° Southwest  Level Estimated
Wed 07:58:00 PM 36.9822 35.2804 202° Southwest  Level Estimated
Wed 07:59:00 PM 36.9822 35.2804 202° Southwest  Level Estimated
Wed 08:00:00 PM 36.9822 35.2804 202° Southwest  Level Estimated
Wed 08:01:00 PM 36.9822 35.2804 202° Southwest  Level Estimated

Login

Don't have an account? Register now (free) for customized features, flight alerts, and more!